sensor_id;sensor_type;location;lat;lon;timestamp;temperature;humidity
62072;DHT22;48031;48.542;13.232;2022-09-13T00:01:34;12.50;16.60
62072;DHT22;48031;48.542;13.232;2022-09-13T00:04:01;12.50;10.40
62072;DHT22;48031;48.542;13.232;2022-09-13T00:06:29;12.40;10.70
62072;DHT22;48031;48.542;13.232;2022-09-13T00:08:57;12.40;11.20
62072;DHT22;48031;48.542;13.232;2022-09-13T00:11:26;12.20;12.70
62072;DHT22;48031;48.542;13.232;2022-09-13T00:13:54;12.30;13.40
62072;DHT22;48031;48.542;13.232;2022-09-13T00:16:25;12.20;15.00
62072;DHT22;48031;48.542;13.232;2022-09-13T00:18:53;12.20;19.10
62072;DHT22;48031;48.542;13.232;2022-09-13T00:31:18;11.90;21.00
62072;DHT22;48031;48.542;13.232;2022-09-13T00:51:11;11.70;24.60
62072;DHT22;48031;48.542;13.232;2022-09-13T00:53:42;11.80;22.10
62072;DHT22;48031;48.542;13.232;2022-09-13T00:56:16;11.80;21.80
62072;DHT22;48031;48.542;13.232;2022-09-13T01:03:52;11.90;27.50
62072;DHT22;48031;48.542;13.232;2022-09-13T01:13:56;11.70;21.50
62072;DHT22;48031;48.542;13.232;2022-09-13T01:18:52;11.70;25.60
62072;DHT22;48031;48.542;13.232;2022-09-13T01:35:56;11.80;19.70
62072;DHT22;48031;48.542;13.232;2022-09-13T01:41:29;11.90;22.90
62072;DHT22;48031;48.542;13.232;2022-09-13T01:54:29;11.70;23.00
62072;DHT22;48031;48.542;13.232;2022-09-13T02:00:15;11.70;23.50
62072;DHT22;48031;48.542;13.232;2022-09-13T02:05:36;11.80;26.30
62072;DHT22;48031;48.542;13.232;2022-09-13T02:08:28;11.70;24.80
62072;DHT22;48031;48.542;13.232;2022-09-13T02:11:07;11.70;26.00
62072;DHT22;48031;48.542;13.232;2022-09-13T02:13:42;11.60;26.90
62072;DHT22;48031;48.542;13.232;2022-09-13T02:16:19;11.60;27.70
62072;DHT22;48031;48.542;13.232;2022-09-13T02:18:53;11.60;29.70
62072;DHT22;48031;48.542;13.232;2022-09-13T02:21:28;11.60;28.90
62072;DHT22;48031;48.542;13.232;2022-09-13T02:28:59;11.50;28.70
62072;DHT22;48031;48.542;13.232;2022-09-13T02:31:38;11.50;28.20
62072;DHT22;48031;48.542;13.232;2022-09-13T02:36:38;11.40;31.20
62072;DHT22;48031;48.542;13.232;2022-09-13T02:39:12;11.50;30.00
62072;DHT22;48031;48.542;13.232;2022-09-13T03:04:29;11.30;12.50
62072;DHT22;48031;48.542;13.232;2022-09-13T03:06:56;11.20;15.70
62072;DHT22;48031;48.542;13.232;2022-09-13T03:09:24;11.20;15.50
62072;DHT22;48031;48.542;13.232;2022-09-13T03:12:06;11.30;13.60
62072;DHT22;48031;48.542;13.232;2022-09-13T03:20:11;11.20;18.80
62072;DHT22;48031;48.542;13.232;2022-09-13T03:30:27;11.00;18.70
62072;DHT22;48031;48.542;13.232;2022-09-13T03:38:33;11.20;21.80
62072;DHT22;48031;48.542;13.232;2022-09-13T03:41:21;11.20;17.80
62072;DHT22;48031;48.542;13.232;2022-09-13T03:43:55;11.10;15.30
62072;DHT22;48031;48.542;13.232;2022-09-13T03:46:25;11.30;16.60
62072;DHT22;48031;48.542;13.232;2022-09-13T03:48:56;11.30;13.60
62072;DHT22;48031;48.542;13.232;2022-09-13T03:51:24;11.10;14.80
62072;DHT22;48031;48.542;13.232;2022-09-13T03:58:52;11.20;28.30
62072;DHT22;48031;48.542;13.232;2022-09-13T04:01:21;11.30;20.80
62072;DHT22;48031;48.542;13.232;2022-09-13T04:03:50;11.30;18.70
62072;DHT22;48031;48.542;13.232;2022-09-13T04:06:22;11.00;15.20
62072;DHT22;48031;48.542;13.232;2022-09-13T04:08:49;10.80;14.90
62072;DHT22;48031;48.542;13.232;2022-09-13T04:11:17;10.90;17.50
62072;DHT22;48031;48.542;13.232;2022-09-13T04:13:44;10.70;19.70
62072;DHT22;48031;48.542;13.232;2022-09-13T04:16:11;10.70;22.90
62072;DHT22;48031;48.542;13.232;2022-09-13T04:18:38;10.80;24.50
62072;DHT22;48031;48.542;13.232;2022-09-13T04:21:05;10.90;22.00
62072;DHT22;48031;48.542;13.232;2022-09-13T04:23:33;10.90;18.80
62072;DHT22;48031;48.542;13.232;2022-09-13T04:26:03;10.80;19.30
62072;DHT22;48031;48.542;13.232;2022-09-13T04:28:30;10.60;21.90
62072;DHT22;48031;48.542;13.232;2022-09-13T04:30:58;10.70;24.70
62072;DHT22;48031;48.542;13.232;2022-09-13T04:33:25;10.80;28.70
62072;DHT22;48031;48.542;13.232;2022-09-13T04:35:59;10.80;33.30
62072;DHT22;48031;48.542;13.232;2022-09-13T04:38:26;10.90;30.50
62072;DHT22;48031;48.542;13.232;2022-09-13T04:43:23;10.70;29.40
62072;DHT22;48031;48.542;13.232;2022-09-13T04:45:50;10.50;29.20
62072;DHT22;48031;48.542;13.232;2022-09-13T04:48:18;10.40;19.20
62072;DHT22;48031;48.542;13.232;2022-09-13T04:50:45;10.50;23.30
62072;DHT22;48031;48.542;13.232;2022-09-13T04:53:13;10.60;19.70
62072;DHT22;48031;48.542;13.232;2022-09-13T04:55:40;10.60;15.50
62072;DHT22;48031;48.542;13.232;2022-09-13T04:58:07;10.60;16.00
62072;DHT22;48031;48.542;13.232;2022-09-13T05:00:35;10.70;14.50
62072;DHT22;48031;48.542;13.232;2022-09-13T05:03:02;10.80;15.10
62072;DHT22;48031;48.542;13.232;2022-09-13T05:05:31;10.80;15.40
62072;DHT22;48031;48.542;13.232;2022-09-13T05:07:58;10.80;16.40
62072;DHT22;48031;48.542;13.232;2022-09-13T05:10:25;10.90;18.00
62072;DHT22;48031;48.542;13.232;2022-09-13T05:12:53;10.90;18.30
62072;DHT22;48031;48.542;13.232;2022-09-13T05:15:20;11.00;15.40
62072;DHT22;48031;48.542;13.232;2022-09-13T05:17:47;10.70;11.60
62072;DHT22;48031;48.542;13.232;2022-09-13T05:20:15;10.50;10.20
62072;DHT22;48031;48.542;13.232;2022-09-13T05:22:42;10.60;10.70
62072;DHT22;48031;48.542;13.232;2022-09-13T05:25:09;10.70;14.20
62072;DHT22;48031;48.542;13.232;2022-09-13T05:27:36;11.00;17.50
62072;DHT22;48031;48.542;13.232;2022-09-13T05:30:04;11.10;20.90
62072;DHT22;48031;48.542;13.232;2022-09-13T05:32:31;11.30;22.20
62072;DHT22;48031;48.542;13.232;2022-09-13T05:34:58;11.40;20.30
62072;DHT22;48031;48.542;13.232;2022-09-13T05:37:25;11.50;20.70
62072;DHT22;48031;48.542;13.232;2022-09-13T05:39:52;11.60;21.90
62072;DHT22;48031;48.542;13.232;2022-09-13T05:42:37;11.70;21.90
62072;DHT22;48031;48.542;13.232;2022-09-13T05:45:05;11.40;14.70
62072;DHT22;48031;48.542;13.232;2022-09-13T05:47:32;11.10;13.70
62072;DHT22;48031;48.542;13.232;2022-09-13T05:49:59;11.10;13.60
62072;DHT22;48031;48.542;13.232;2022-09-13T05:52:55;11.10;11.00
62072;DHT22;48031;48.542;13.232;2022-09-13T05:55:22;11.30;12.30
62072;DHT22;48031;48.542;13.232;2022-09-13T05:57:49;11.50;14.90
62072;DHT22;48031;48.542;13.232;2022-09-13T06:00:17;11.60;18.20
62072;DHT22;48031;48.542;13.232;2022-09-13T06:02:44;11.70;16.90
62072;DHT22;48031;48.542;13.232;2022-09-13T06:05:11;11.90;14.50
62072;DHT22;48031;48.542;13.232;2022-09-13T06:07:39;11.90;14.00
62072;DHT22;48031;48.542;13.232;2022-09-13T06:10:08;11.70;14.60
62072;DHT22;48031;48.542;13.232;2022-09-13T06:12:36;11.70;10.90
62072;DHT22;48031;48.542;13.232;2022-09-13T06:15:04;11.80;14.30
62072;DHT22;48031;48.542;13.232;2022-09-13T06:17:31;11.90;17.60
62072;DHT22;48031;48.542;13.232;2022-09-13T06:24:59;12.30;20.60
62072;DHT22;48031;48.542;13.232;2022-09-13T06:27:27;12.50;18.20
62072;DHT22;48031;48.542;13.232;2022-09-13T06:29:54;12.60;19.50
62072;DHT22;48031;48.542;13.232;2022-09-13T06:32:21;12.60;22.40
62072;DHT22;48031;48.542;13.232;2022-09-13T06:34:48;12.80;24.00
62072;DHT22;48031;48.542;13.232;2022-09-13T06:37:15;13.00;22.00
62072;DHT22;48031;48.542;13.232;2022-09-13T06:39:43;13.30;16.80
62072;DHT22;48031;48.542;13.232;2022-09-13T06:42:10;13.60;17.30
62072;DHT22;48031;48.542;13.232;2022-09-13T06:47:06;13.70;21.40
62072;DHT22;48031;48.542;13.232;2022-09-13T06:49:33;13.70;18.20
62072;DHT22;48031;48.542;13.232;2022-09-13T06:52:01;13.70;19.90
62072;DHT22;48031;48.542;13.232;2022-09-13T06:54:28;13.60;22.20
62072;DHT22;48031;48.542;13.232;2022-09-13T06:56:55;13.50;20.60
62072;DHT22;48031;48.542;13.232;2022-09-13T07:06:47;13.50;21.30
62072;DHT22;48031;48.542;13.232;2022-09-13T07:09:19;13.50;18.10
62072;DHT22;48031;48.542;13.232;2022-09-13T07:11:49;13.70;16.90
62072;DHT22;48031;48.542;13.232;2022-09-13T07:14:19;13.80;21.20
62072;DHT22;48031;48.542;13.232;2022-09-13T07:16:48;14.10;21.70
62072;DHT22;48031;48.542;13.232;2022-09-13T07:24:11;14.50;18.70
62072;DHT22;48031;48.542;13.232;2022-09-13T07:26:38;14.80;16.50
62072;DHT22;48031;48.542;13.232;2022-09-13T07:29:09;15.00;11.00
62072;DHT22;48031;48.542;13.232;2022-09-13T07:31:38;15.10;11.90
62072;DHT22;48031;48.542;13.232;2022-09-13T07:34:07;15.20;9.40
62072;DHT22;48031;48.542;13.232;2022-09-13T07:41:35;15.50;11.20
62072;DHT22;48031;48.542;13.232;2022-09-13T07:44:03;15.70;8.40
62072;DHT22;48031;48.542;13.232;2022-09-13T07:51:33;15.30;17.50
62072;DHT22;48031;48.542;13.232;2022-09-13T07:54:02;15.50;14.60
62072;DHT22;48031;48.542;13.232;2022-09-13T07:59:04;15.60;1.00
62072;DHT22;48031;48.542;13.232;2022-09-13T08:01:39;15.90;1.00
62072;DHT22;48031;48.542;13.232;2022-09-13T08:04:12;15.90;1.00
62072;DHT22;48031;48.542;13.232;2022-09-13T08:06:40;15.80;1.50
62072;DHT22;48031;48.542;13.232;2022-09-13T08:09:09;15.80;2.80
62072;DHT22;48031;48.542;13.232;2022-09-13T08:11:42;16.00;3.20
62072;DHT22;48031;48.542;13.232;2022-09-13T08:14:13;16.20;4.40
62072;DHT22;48031;48.542;13.232;2022-09-13T08:16:40;16.00;8.20
62072;DHT22;48031;48.542;13.232;2022-09-13T08:19:11;16.10;6.30
62072;DHT22;48031;48.542;13.232;2022-09-13T08:21:39;15.80;3.60
62072;DHT22;48031;48.542;13.232;2022-09-13T08:26:39;16.20;9.60
62072;DHT22;48031;48.542;13.232;2022-09-13T08:29:06;16.20;8.90
62072;DHT22;48031;48.542;13.232;2022-09-13T08:31:34;16.20;8.20
62072;DHT22;48031;48.542;13.232;2022-09-13T08:34:01;16.20;9.50
62072;DHT22;48031;48.542;13.232;2022-09-13T08:36:29;16.20;10.30
62072;DHT22;48031;48.542;13.232;2022-09-13T08:38:58;16.30;12.10
62072;DHT22;48031;48.542;13.232;2022-09-13T08:49:29;16.80;13.60
62072;DHT22;48031;48.542;13.232;2022-09-13T08:54:48;17.40;9.30
62072;DHT22;48031;48.542;13.232;2022-09-13T09:20:43;21.90;1.00
62072;DHT22;48031;48.542;13.232;2022-09-13T09:23:40;22.50;1.00
62072;DHT22;48031;48.542;13.232;2022-09-13T09:26:24;22.60;1.00
62072;DHT22;48031;48.542;13.232;2022-09-13T09:28:59;22.70;1.00
62072;DHT22;48031;48.542;13.232;2022-09-13T09:31:38;22.90;1.00
62072;DHT22;48031;48.542;13.232;2022-09-13T09:37:21;24.00;1.00
62072;DHT22;48031;48.542;13.232;2022-09-13T09:39:52;24.20;1.00
62072;DHT22;48031;48.542;13.232;2022-09-13T09:42:24;24.40;1.00
62072;DHT22;48031;48.542;13.232;2022-09-13T09:44:59;24.60;1.00
62072;DHT22;48031;48.542;13.232;2022-09-13T09:47:30;25.40;1.00
62072;DHT22;48031;48.542;13.232;2022-09-13T09:50:06;25.30;1.00
62072;DHT22;48031;48.542;13.232;2022-09-13T09:55:18;27.40;1.00
62072;DHT22;48031;48.542;13.232;2022-09-13T09:57:52;28.10;1.00
62072;DHT22;48031;48.542;13.232;2022-09-13T10:00:22;28.80;1.00
62072;DHT22;48031;48.542;13.232;2022-09-13T10:07:58;29.70;1.00
62072;DHT22;48031;48.542;13.232;2022-09-13T10:13:06;28.80;1.00
62072;DHT22;48031;48.542;13.232;2022-09-13T10:15:34;30.00;1.00
62072;DHT22;48031;48.542;13.232;2022-09-13T10:18:13;30.90;1.00
62072;DHT22;48031;48.542;13.232;2022-09-13T10:23:33;32.30;1.00
62072;DHT22;48031;48.542;13.232;2022-09-13T10:26:10;32.90;1.00
62072;DHT22;48031;48.542;13.232;2022-09-13T10:31:12;32.90;1.00
62072;DHT22;48031;48.542;13.232;2022-09-13T10:34:10;32.00;1.00
62072;DHT22;48031;48.542;13.232;2022-09-13T10:39:23;31.30;1.00
62072;DHT22;48031;48.542;13.232;2022-09-13T10:42:07;30.20;1.00
62072;DHT22;48031;48.542;13.232;2022-09-13T10:44:44;29.70;1.00
62072;DHT22;48031;48.542;13.232;2022-09-13T10:47:30;31.30;1.00
62072;DHT22;48031;48.542;13.232;2022-09-13T10:52:44;30.90;1.00
62072;DHT22;48031;48.542;13.232;2022-09-13T10:57:46;30.80;1.00
62072;DHT22;48031;48.542;13.232;2022-09-13T11:00:19;31.40;1.00
62072;DHT22;48031;48.542;13.232;2022-09-13T11:03:10;31.20;1.00
62072;DHT22;48031;48.542;13.232;2022-09-13T11:08:24;34.70;1.00
62072;DHT22;48031;48.542;13.232;2022-09-13T11:38:34;30.60;1.00
62072;DHT22;48031;48.542;13.232;2022-09-13T11:41:32;29.90;1.00
62072;DHT22;48031;48.542;13.232;2022-09-13T11:49:30;27.80;1.00
62072;DHT22;48031;48.542;13.232;2022-09-13T11:55:27;27.70;1.00
62072;DHT22;48031;48.542;13.232;2022-09-13T11:58:00;27.00;1.00
62072;DHT22;48031;48.542;13.232;2022-09-13T12:00:45;26.80;1.00
62072;DHT22;48031;48.542;13.232;2022-09-13T12:08:41;25.50;1.00
62072;DHT22;48031;48.542;13.232;2022-09-13T12:16:42;26.00;1.00
62072;DHT22;48031;48.542;13.232;2022-09-13T12:19:13;26.00;1.00
62072;DHT22;48031;48.542;13.232;2022-09-13T12:21:43;26.00;1.00
62072;DHT22;48031;48.542;13.232;2022-09-13T12:24:18;25.70;1.00
62072;DHT22;48031;48.542;13.232;2022-09-13T12:26:55;25.60;1.00
62072;DHT22;48031;48.542;13.232;2022-09-13T12:32:10;24.70;1.00
62072;DHT22;48031;48.542;13.232;2022-09-13T12:43:09;24.60;1.00
62072;DHT22;48031;48.542;13.232;2022-09-13T12:50:49;25.30;1.00
62072;DHT22;48031;48.542;13.232;2022-09-13T12:53:26;25.10;1.00
62072;DHT22;48031;48.542;13.232;2022-09-13T13:01:21;26.20;1.00
62072;DHT22;48031;48.542;13.232;2022-09-13T13:04:00;25.30;1.00
62072;DHT22;48031;48.542;13.232;2022-09-13T13:06:53;24.80;1.00
62072;DHT22;48031;48.542;13.232;2022-09-13T13:11:55;24.10;1.00
62072;DHT22;48031;48.542;13.232;2022-09-13T13:14:48;24.00;1.00
62072;DHT22;48031;48.542;13.232;2022-09-13T13:37:30;23.10;1.00
62072;DHT22;48031;48.542;13.232;2022-09-13T13:49:42;23.50;1.00
62072;DHT22;48031;48.542;13.232;2022-09-13T13:58:02;23.60;1.00
62072;DHT22;48031;48.542;13.232;2022-09-13T14:00:33;23.40;1.00
62072;DHT22;48031;48.542;13.232;2022-09-13T14:21:33;22.80;1.00
62072;DHT22;48031;48.542;13.232;2022-09-13T14:31:50;22.50;1.00
62072;DHT22;48031;48.542;13.232;2022-09-13T14:34:29;22.70;1.00
62072;DHT22;48031;48.542;13.232;2022-09-13T14:36:58;22.50;1.00
62072;DHT22;48031;48.542;13.232;2022-09-13T14:39:27;22.70;1.00
62072;DHT22;48031;48.542;13.232;2022-09-13T14:42:00;22.90;1.00
62072;DHT22;48031;48.542;13.232;2022-09-13T14:44:28;22.90;1.00
62072;DHT22;48031;48.542;13.232;2022-09-13T14:47:29;22.80;1.00
62072;DHT22;48031;48.542;13.232;2022-09-13T14:50:04;22.60;1.00
62072;DHT22;48031;48.542;13.232;2022-09-13T14:55:19;23.00;1.00
62072;DHT22;48031;48.542;13.232;2022-09-13T14:57:54;23.40;1.00
62072;DHT22;48031;48.542;13.232;2022-09-13T15:00:25;23.70;1.00
62072;DHT22;48031;48.542;13.232;2022-09-13T15:05:30;24.30;1.00
62072;DHT22;48031;48.542;13.232;2022-09-13T15:07:58;24.50;1.00
62072;DHT22;48031;48.542;13.232;2022-09-13T15:10:32;24.80;1.00
62072;DHT22;48031;48.542;13.232;2022-09-13T15:15:40;24.40;1.00
62072;DHT22;48031;48.542;13.232;2022-09-13T15:23:31;23.20;1.00
62072;DHT22;48031;48.542;13.232;2022-09-13T15:26:09;22.90;1.00
62072;DHT22;48031;48.542;13.232;2022-09-13T15:31:21;22.80;1.00
62072;DHT22;48031;48.542;13.232;2022-09-13T15:33:48;22.40;1.00
62072;DHT22;48031;48.542;13.232;2022-09-13T15:36:35;22.20;1.00
62072;DHT22;48031;48.542;13.232;2022-09-13T15:39:11;22.10;1.00
62072;DHT22;48031;48.542;13.232;2022-09-13T15:41:40;21.90;1.00
62072;DHT22;48031;48.542;13.232;2022-09-13T15:44:16;21.80;1.00
62072;DHT22;48031;48.542;13.232;2022-09-13T15:46:50;21.70;1.00
62072;DHT22;48031;48.542;13.232;2022-09-13T15:49:23;21.70;1.00
62072;DHT22;48031;48.542;13.232;2022-09-13T15:51:53;21.60;1.00
62072;DHT22;48031;48.542;13.232;2022-09-13T15:59:20;21.40;1.00
62072;DHT22;48031;48.542;13.232;2022-09-13T16:01:49;21.30;1.00
62072;DHT22;48031;48.542;13.232;2022-09-13T16:06:44;21.20;1.00
62072;DHT22;48031;48.542;13.232;2022-09-13T16:09:23;21.10;1.00
62072;DHT22;48031;48.542;13.232;2022-09-13T16:11:51;21.10;1.00
62072;DHT22;48031;48.542;13.232;2022-09-13T16:14:18;21.10;1.00
62072;DHT22;48031;48.542;13.232;2022-09-13T16:16:46;21.10;1.00
62072;DHT22;48031;48.542;13.232;2022-09-13T16:19:20;20.90;1.00
62072;DHT22;48031;48.542;13.232;2022-09-13T16:21:48;20.80;1.00
62072;DHT22;48031;48.542;13.232;2022-09-13T16:24:15;20.80;1.00
62072;DHT22;48031;48.542;13.232;2022-09-13T16:29:11;20.50;1.00
62072;DHT22;48031;48.542;13.232;2022-09-13T16:31:39;20.50;1.00
62072;DHT22;48031;48.542;13.232;2022-09-13T16:34:07;20.30;1.00
62072;DHT22;48031;48.542;13.232;2022-09-13T16:36:35;20.30;1.00
62072;DHT22;48031;48.542;13.232;2022-09-13T16:39:02;20.30;1.00
62072;DHT22;48031;48.542;13.232;2022-09-13T16:41:29;20.30;1.00
62072;DHT22;48031;48.542;13.232;2022-09-13T16:46:24;20.20;1.00
62072;DHT22;48031;48.542;13.232;2022-09-13T16:48:53;20.20;1.00
62072;DHT22;48031;48.542;13.232;2022-09-13T16:53:49;20.00;1.00
62072;DHT22;48031;48.542;13.232;2022-09-13T16:56:19;20.00;1.00
62072;DHT22;48031;48.542;13.232;2022-09-13T16:58:48;20.00;1.00
62072;DHT22;48031;48.542;13.232;2022-09-13T17:01:18;20.00;1.00
62072;DHT22;48031;48.542;13.232;2022-09-13T17:03:46;20.00;1.00
62072;DHT22;48031;48.542;13.232;2022-09-13T17:06:19;19.90;1.00
62072;DHT22;48031;48.542;13.232;2022-09-13T17:08:49;19.80;1.00
62072;DHT22;48031;48.542;13.232;2022-09-13T17:11:18;19.70;1.00
62072;DHT22;48031;48.542;13.232;2022-09-13T17:13:46;19.60;1.00
62072;DHT22;48031;48.542;13.232;2022-09-13T17:16:23;19.60;1.00
62072;DHT22;48031;48.542;13.232;2022-09-13T17:18:51;19.60;1.00
62072;DHT22;48031;48.542;13.232;2022-09-13T17:21:18;19.50;1.00
62072;DHT22;48031;48.542;13.232;2022-09-13T17:23:46;19.50;1.00
62072;DHT22;48031;48.542;13.232;2022-09-13T17:26:13;19.50;1.00
62072;DHT22;48031;48.542;13.232;2022-09-13T17:28:40;19.50;1.00
62072;DHT22;48031;48.542;13.232;2022-09-13T17:31:07;19.50;1.00
62072;DHT22;48031;48.542;13.232;2022-09-13T17:33:35;19.50;1.00
62072;DHT22;48031;48.542;13.232;2022-09-13T17:36:07;19.30;1.00
62072;DHT22;48031;48.542;13.232;2022-09-13T17:38:35;19.20;1.00
62072;DHT22;48031;48.542;13.232;2022-09-13T17:41:07;19.20;1.00
62072;DHT22;48031;48.542;13.232;2022-09-13T17:43:36;19.20;1.00
62072;DHT22;48031;48.542;13.232;2022-09-13T17:51:04;19.30;1.00
62072;DHT22;48031;48.542;13.232;2022-09-13T19:39:00;17.50;4.60
62072;DHT22;48031;48.542;13.232;2022-09-13T19:41:28;17.60;9.50
62072;DHT22;48031;48.542;13.232;2022-09-13T19:43:59;17.60;1.00
62072;DHT22;48031;48.542;13.232;2022-09-13T19:46:30;17.60;1.00
62072;DHT22;48031;48.542;13.232;2022-09-13T19:48:59;17.60;1.00
62072;DHT22;48031;48.542;13.232;2022-09-13T19:51:36;17.60;1.00
62072;DHT22;48031;48.542;13.232;2022-09-13T19:54:06;17.60;1.00
62072;DHT22;48031;48.542;13.232;2022-09-13T19:56:36;17.60;1.70
62072;DHT22;48031;48.542;13.232;2022-09-13T20:04:07;17.40;7.60
62072;DHT22;48031;48.542;13.232;2022-09-13T20:19:01;17.20;8.90
62072;DHT22;48031;48.542;13.232;2022-09-13T20:21:49;17.10;4.80
62072;DHT22;48031;48.542;13.232;2022-09-13T20:24:17;17.20;5.20
62072;DHT22;48031;48.542;13.232;2022-09-13T20:26:44;17.10;6.40
62072;DHT22;48031;48.542;13.232;2022-09-13T20:29:12;17.10;7.50
62072;DHT22;48031;48.542;13.232;2022-09-13T21:03:56;16.60;2.00
62072;DHT22;48031;48.542;13.232;2022-09-13T21:06:25;16.70;2.60
62072;DHT22;48031;48.542;13.232;2022-09-13T21:08:53;16.50;5.70
62072;DHT22;48031;48.542;13.232;2022-09-13T21:11:27;16.40;5.70
62072;DHT22;48031;48.542;13.232;2022-09-13T21:16:32;16.50;11.60
62072;DHT22;48031;48.542;13.232;2022-09-13T21:21:31;16.40;14.30
62072;DHT22;48031;48.542;13.232;2022-09-13T21:31:30;16.40;13.90
62072;DHT22;48031;48.542;13.232;2022-09-13T21:34:03;16.40;12.40
62072;DHT22;48031;48.542;13.232;2022-09-13T21:46:26;16.30;17.80
62072;DHT22;48031;48.542;13.232;2022-09-13T21:48:55;16.40;14.60
62072;DHT22;48031;48.542;13.232;2022-09-13T21:51:27;16.30;14.50
62072;DHT22;48031;48.542;13.232;2022-09-13T22:36:13;16.20;14.90
62072;DHT22;48031;48.542;13.232;2022-09-13T22:38:42;16.30;15.00
62072;DHT22;48031;48.542;13.232;2022-09-13T22:46:14;16.30;17.60
62072;DHT22;48031;48.542;13.232;2022-09-13T23:18:41;16.20;6.10
62072;DHT22;48031;48.542;13.232;2022-09-13T23:21:08;16.30;8.10
62072;DHT22;48031;48.542;13.232;2022-09-13T23:23:36;16.10;7.00
62072;DHT22;48031;48.542;13.232;2022-09-13T23:26:09;16.00;6.90
62072;DHT22;48031;48.542;13.232;2022-09-13T23:28:37;16.00;7.40
62072;DHT22;48031;48.542;13.232;2022-09-13T23:33:43;15.90;9.20
62072;DHT22;48031;48.542;13.232;2022-09-13T23:36:12;15.90;11.30
62072;DHT22;48031;48.542;13.232;2022-09-13T23:38:43;16.00;15.00
62072;DHT22;48031;48.542;13.232;2022-09-13T23:41:11;16.00;19.40
62072;DHT22;48031;48.542;13.232;2022-09-13T23:43:39;16.00;15.20
62072;DHT22;48031;48.542;13.232;2022-09-13T23:46:06;15.90;15.70
